Time,TemperatureF,DewpointF,PressureIn,WindDirection,WindDirectionDegrees,WindSpeedMPH,WindSpeedGustMPH,Humidity,HourlyPrecipIn,Conditions,Clouds,dailyrainin,SoftwareType,DateUTC
2013-08-15 00:01:00,82.0,78.1,29.90,East,90,2.0,4.0,88,0.00,,,0.00,meteohub,2013-08-15 04:01:00,
2013-08-15 00:02:00,82.0,78.1,29.90,SE,135,2.0,4.0,88,0.00,,,0.00,meteohub,2013-08-15 04:02:00,
2013-08-15 00:03:00,82.0,78.1,29.90,East,90,2.0,4.0,88,0.00,,,0.00,meteohub,2013-08-15 04:03:00,
2013-08-15 00:06:00,82.0,78.1,29.90,SE,135,2.0,3.0,88,0.00,,,0.00,meteohub,2013-08-15 04:06:00,
2013-08-15 00:11:00,82.0,78.1,29.89,SE,135,3.0,3.0,88,0.00,,,0.00,meteohub,2013-08-15 04:11:00,
2013-08-15 00:16:00,82.0,78.1,29.90,East,90,2.0,3.0,88,0.00,,,0.00,meteohub,2013-08-15 04:16:00,
2013-08-15 00:21:00,82.2,78.3,29.89,South,180,1.0,4.0,88,0.00,,,0.00,meteohub,2013-08-15 04:21:00,
2013-08-15 00:26:00,82.0,78.4,29.90,East,90,2.0,4.0,89,0.00,,,0.00,meteohub,2013-08-15 04:26:00,
2013-08-15 00:31:00,82.2,78.6,29.90,SE,135,2.0,4.0,89,0.00,,,0.00,meteohub,2013-08-15 04:31:00,
2013-08-15 00:36:00,82.2,78.6,29.90,SE,135,1.0,4.0,89,0.00,,,0.00,meteohub,2013-08-15 04:36:00,
2013-08-15 00:41:00,82.0,78.8,29.90,SE,135,1.0,4.0,90,0.00,,,0.00,meteohub,2013-08-15 04:41:00,
2013-08-15 00:47:00,82.0,79.2,29.89,SE,135,2.0,4.0,91,0.00,,,0.00,meteohub,2013-08-15 04:47:00,
2013-08-15 00:52:00,82.0,79.2,29.89,East,90,2.0,4.0,91,0.00,,,0.00,meteohub,2013-08-15 04:52:00,
2013-08-15 00:57:00,81.9,79.7,29.89,SE,135,2.0,2.0,93,0.00,,,0.00,meteohub,2013-08-15 04:57:00,
2013-08-15 01:02:00,81.9,79.9,29.89,SE,135,2.0,2.0,94,0.00,,,0.00,meteohub,2013-08-15 05:02:00,
2013-08-15 01:07:00,81.9,80.2,29.89,East,90,2.0,2.0,95,0.00,,,0.00,meteohub,2013-08-15 05:07:00,
2013-08-15 01:12:00,81.7,80.1,29.89,South,180,1.0,2.0,95,0.00,,,0.00,meteohub,2013-08-15 05:12:00,
2013-08-15 01:17:00,81.9,80.2,29.89,SE,135,3.0,3.0,95,0.00,,,0.00,meteohub,2013-08-15 05:17:00,
2013-08-15 01:22:00,81.9,79.9,29.88,SW,225,5.0,5.0,94,0.00,,,0.00,meteohub,2013-08-15 05:22:00,
2013-08-15 01:27:00,81.9,80.2,29.88,South,180,3.0,6.0,95,0.00,,,0.00,meteohub,2013-08-15 05:27:00,
2013-08-15 01:32:00,81.5,79.0,29.89,SW,225,4.0,6.0,92,0.00,,,0.00,meteohub,2013-08-15 05:32:00,
2013-08-15 01:37:00,81.3,78.1,29.89,SW,225,3.0,6.0,90,0.00,,,0.00,meteohub,2013-08-15 05:37:00,
2013-08-15 01:42:00,81.3,77.7,29.89,SW,225,3.0,5.0,89,0.00,,,0.00,meteohub,2013-08-15 05:42:00,
2013-08-15 01:47:00,81.3,77.7,29.89,SW,225,2.0,4.0,89,0.00,,,0.00,meteohub,2013-08-15 05:47:00,
2013-08-15 01:52:00,81.0,77.7,29.88,West,270,1.0,3.0,90,0.00,,,0.00,meteohub,2013-08-15 05:52:00,
2013-08-15 01:57:00,81.0,78.1,29.88,South,180,1.0,3.0,91,0.00,,,0.00,meteohub,2013-08-15 05:57:00,
2013-08-15 02:02:00,80.8,77.9,29.88,South,180,1.0,2.0,91,0.00,,,0.00,meteohub,2013-08-15 06:02:00,
2013-08-15 02:07:00,80.4,77.9,29.88,South,180,1.0,2.0,92,0.00,,,0.00,meteohub,2013-08-15 06:07:00,
2013-08-15 02:12:00,80.1,78.3,29.88,South,180,0.0,2.0,94,0.00,,,0.00,meteohub,2013-08-15 06:12:00,
2013-08-15 02:17:00,79.7,78.4,29.87,West,270,0.0,1.0,96,0.01,,,0.01,meteohub,2013-08-15 06:17:00,
2013-08-15 02:22:00,79.5,79.2,29.87,West,270,1.0,1.0,99,0.02,,,0.02,meteohub,2013-08-15 06:22:00,
2013-08-15 02:27:00,79.2,78.8,29.87,East,90,2.0,2.0,99,0.07,,,0.07,meteohub,2013-08-15 06:27:00,
2013-08-15 02:32:00,78.8,78.4,29.87,North,0,0.0,2.0,99,0.07,,,0.07,meteohub,2013-08-15 06:32:00,
2013-08-15 02:37:00,78.6,78.3,29.87,SW,225,0.0,2.0,99,0.07,,,0.07,meteohub,2013-08-15 06:37:00,
2013-08-15 02:42:00,78.4,78.1,29.86,South,180,0.0,2.0,99,0.07,,,0.07,meteohub,2013-08-15 06:42:00,
2013-08-15 02:47:00,78.6,78.3,29.87,South,180,1.0,1.0,99,0.07,,,0.07,meteohub,2013-08-15 06:47:00,
2013-08-15 02:52:00,78.6,78.3,29.86,East,90,2.0,2.0,99,0.07,,,0.07,meteohub,2013-08-15 06:52:00,
2013-08-15 02:57:00,78.3,77.9,29.86,SE,135,2.0,3.0,99,0.07,,,0.07,meteohub,2013-08-15 06:57:00,
2013-08-15 03:02:00,78.1,77.7,29.86,East,90,1.0,3.0,99,0.07,,,0.07,meteohub,2013-08-15 07:02:00,
2013-08-15 03:07:00,77.7,77.4,29.86,South,180,0.0,3.0,99,0.07,,,0.07,meteohub,2013-08-15 07:07:00,
2013-08-15 03:12:00,77.7,77.4,29.86,North,0,1.0,2.0,99,0.07,,,0.07,meteohub,2013-08-15 07:12:00,
2013-08-15 03:17:00,78.1,77.7,29.86,South,180,1.0,2.0,99,0.05,,,0.07,meteohub,2013-08-15 07:17:00,
2013-08-15 03:22:00,78.3,77.9,29.85,SE,135,0.0,2.0,99,0.02,,,0.07,meteohub,2013-08-15 07:22:00,
2013-08-15 03:27:00,78.4,78.1,29.85,SW,225,1.0,2.0,99,0.00,,,0.07,meteohub,2013-08-15 07:27:00,
2013-08-15 03:32:00,78.4,78.1,29.85,South,180,1.0,1.0,99,0.00,,,0.07,meteohub,2013-08-15 07:32:00,
2013-08-15 03:37:00,78.4,78.1,29.85,SW,225,0.0,1.0,99,0.00,,,0.07,meteohub,2013-08-15 07:37:00,
2013-08-15 03:42:00,78.3,77.9,29.84,South,180,1.0,1.0,99,0.00,,,0.07,meteohub,2013-08-15 07:42:00,
2013-08-15 03:47:00,78.3,77.9,29.85,South,180,1.0,1.0,99,0.00,,,0.07,meteohub,2013-08-15 07:47:00,
2013-08-15 03:52:00,78.3,77.9,29.85,SW,225,0.0,1.0,99,0.00,,,0.07,meteohub,2013-08-15 07:52:00,
2013-08-15 03:57:00,78.3,77.9,29.85,SW,225,0.0,1.0,99,0.00,,,0.07,meteohub,2013-08-15 07:57:00,
2013-08-15 04:02:00,78.3,77.9,29.85,NW,315,1.0,1.0,99,0.00,,,0.07,meteohub,2013-08-15 08:02:00,
2013-08-15 04:07:00,78.3,77.9,29.85,NW,315,0.0,1.0,99,0.00,,,0.07,meteohub,2013-08-15 08:07:00,
2013-08-15 04:12:00,78.1,77.7,29.86,NW,315,0.0,1.0,99,0.00,,,0.07,meteohub,2013-08-15 08:12:00,
2013-08-15 04:17:00,77.9,77.5,29.86,West,270,0.0,1.0,99,0.00,,,0.07,meteohub,2013-08-15 08:17:00,
2013-08-15 04:22:00,78.1,77.7,29.87,West,270,0.0,1.0,99,0.00,,,0.07,meteohub,2013-08-15 08:22:00,
2013-08-15 04:27:00,78.1,77.7,29.87,West,270,0.0,1.0,99,0.00,,,0.07,meteohub,2013-08-15 08:27:00,
2013-08-15 04:32:00,78.1,77.7,29.87,West,270,0.0,1.0,99,0.00,,,0.07,meteohub,2013-08-15 08:32:00,
2013-08-15 04:37:00,77.9,77.5,29.86,West,270,0.0,1.0,99,0.00,,,0.07,meteohub,2013-08-15 08:37:00,
2013-08-15 04:42:00,78.1,77.7,29.86,West,270,0.0,0.0,99,0.00,,,0.07,meteohub,2013-08-15 08:42:00,
2013-08-15 04:47:00,78.1,77.7,29.86,West,270,1.0,0.0,99,0.00,,,0.07,meteohub,2013-08-15 08:47:00,
2013-08-15 04:52:00,78.1,77.7,29.86,West,270,0.0,1.0,99,0.00,,,0.07,meteohub,2013-08-15 08:52:00,
2013-08-15 04:57:00,78.1,77.7,29.86,West,270,0.0,1.0,99,0.00,,,0.07,meteohub,2013-08-15 08:57:00,
2013-08-15 05:03:00,78.1,77.7,29.86,West,270,0.0,1.0,99,0.00,,,0.07,meteohub,2013-08-15 09:03:00,
2013-08-15 05:08:00,78.1,77.7,29.86,West,270,0.0,1.0,99,0.00,,,0.07,meteohub,2013-08-15 09:08:00,
2013-08-15 05:13:00,78.1,77.7,29.86,West,270,0.0,1.0,99,0.00,,,0.07,meteohub,2013-08-15 09:13:00,
2013-08-15 05:18:00,78.1,77.7,29.87,West,270,0.0,1.0,99,0.00,,,0.07,meteohub,2013-08-15 09:18:00,
2013-08-15 05:23:00,78.1,77.7,29.87,West,270,0.0,0.0,99,0.00,,,0.07,meteohub,2013-08-15 09:23:00,
2013-08-15 05:28:00,78.1,77.7,29.87,West,270,0.0,0.0,99,0.00,,,0.07,meteohub,2013-08-15 09:28:00,
2013-08-15 05:33:00,78.1,77.7,29.86,West,270,0.0,0.0,99,0.00,,,0.07,meteohub,2013-08-15 09:33:00,
2013-08-15 05:38:00,78.1,77.7,29.86,West,270,0.0,0.0,99,0.00,,,0.07,meteohub,2013-08-15 09:38:00,
2013-08-15 05:43:00,77.9,77.5,29.86,West,270,0.0,0.0,99,0.00,,,0.07,meteohub,2013-08-15 09:43:00,
2013-08-15 05:48:00,77.9,77.5,29.86,West,270,0.0,0.0,99,0.00,,,0.07,meteohub,2013-08-15 09:48:00,
2013-08-15 05:53:00,78.1,77.7,29.87,West,270,0.0,0.0,99,0.00,,,0.07,meteohub,2013-08-15 09:53:00,
2013-08-15 05:59:00,77.9,77.5,29.86,West,270,0.0,0.0,99,0.00,,,0.07,meteohub,2013-08-15 09:59:00,
2013-08-15 06:04:00,77.9,77.5,29.86,West,270,0.0,1.0,99,0.00,,,0.07,meteohub,2013-08-15 10:04:00,
2013-08-15 06:09:00,77.9,77.5,29.86,West,270,0.0,1.0,99,0.00,,,0.07,meteohub,2013-08-15 10:09:00,
2013-08-15 06:14:00,77.9,77.5,29.86,South,180,0.0,1.0,99,0.00,,,0.07,meteohub,2013-08-15 10:14:00,
2013-08-15 06:19:00,77.7,77.4,29.87,South,180,0.0,1.0,99,0.00,,,0.07,meteohub,2013-08-15 10:19:00,
2013-08-15 06:24:00,77.7,77.4,29.87,South,180,0.0,1.0,99,0.00,,,0.07,meteohub,2013-08-15 10:24:00,
2013-08-15 06:29:00,77.9,77.5,29.87,South,180,0.0,0.0,99,0.00,,,0.07,meteohub,2013-08-15 10:29:00,
2013-08-15 06:34:00,77.9,77.5,29.87,NW,315,1.0,0.0,99,0.00,,,0.07,meteohub,2013-08-15 10:34:00,
2013-08-15 06:39:00,77.9,77.5,29.87,North,0,1.0,1.0,99,0.00,,,0.07,meteohub,2013-08-15 10:39:00,
2013-08-15 06:44:00,77.5,77.2,29.88,East,90,2.0,2.0,99,0.00,,,0.07,meteohub,2013-08-15 10:44:00,
2013-08-15 06:50:00,77.4,77.0,29.88,East,90,7.0,7.0,99,0.00,,,0.07,meteohub,2013-08-15 10:50:00,
2013-08-15 06:55:00,77.5,77.2,29.88,North,0,5.0,8.0,99,0.00,,,0.07,meteohub,2013-08-15 10:55:00,
2013-08-15 07:00:00,77.7,77.4,29.88,East,90,8.0,8.0,99,0.00,,,0.07,meteohub,2013-08-15 11:00:00,
2013-08-15 07:05:00,77.4,77.0,29.89,SW,225,2.0,11.0,99,0.00,,,0.07,meteohub,2013-08-15 11:05:00,
2013-08-15 07:10:00,77.0,76.6,29.89,West,270,1.0,11.0,99,0.05,,,0.19,meteohub,2013-08-15 11:10:00,
2013-08-15 07:15:00,76.8,76.5,29.89,NW,315,1.0,11.0,99,0.26,,,0.33,meteohub,2013-08-15 11:15:00,
2013-08-15 07:20:00,76.6,76.3,29.89,NW,315,1.0,2.0,99,0.33,,,0.40,meteohub,2013-08-15 11:20:00,
2013-08-15 07:25:00,76.5,76.1,29.90,NW,315,0.0,2.0,99,0.35,,,0.43,meteohub,2013-08-15 11:25:00,
2013-08-15 07:30:00,76.3,75.9,29.89,SW,225,0.0,2.0,99,0.35,,,0.43,meteohub,2013-08-15 11:30:00,
2013-08-15 07:35:00,76.5,76.1,29.89,SW,225,0.0,1.0,99,0.35,,,0.43,meteohub,2013-08-15 11:35:00,
2013-08-15 07:41:00,76.3,75.9,29.89,East,90,1.0,1.0,99,0.35,,,0.43,meteohub,2013-08-15 11:41:00,
2013-08-15 07:46:00,76.5,76.1,29.89,SE,135,1.0,2.0,99,0.35,,,0.43,meteohub,2013-08-15 11:46:00,
2013-08-15 07:51:00,76.5,76.1,29.89,East,90,2.0,2.0,99,0.35,,,0.43,meteohub,2013-08-15 11:51:00,
2013-08-15 07:56:00,76.6,76.3,29.89,East,90,2.0,2.0,99,0.35,,,0.43,meteohub,2013-08-15 11:56:00,
2013-08-15 08:01:00,76.6,76.3,29.89,South,180,0.0,2.0,99,0.33,,,0.43,meteohub,2013-08-15 12:01:00,
2013-08-15 08:06:00,76.8,76.5,29.89,South,180,1.0,2.0,99,0.26,,,0.43,meteohub,2013-08-15 12:06:00,
2013-08-15 08:11:00,76.6,76.3,29.88,SW,225,4.0,4.0,99,0.15,,,0.43,meteohub,2013-08-15 12:11:00,
2013-08-15 08:16:00,76.8,76.5,29.89,East,90,3.0,4.0,99,0.07,,,0.43,meteohub,2013-08-15 12:16:00,
2013-08-15 08:21:00,77.0,76.6,29.88,SE,135,2.0,6.0,99,0.01,,,0.44,meteohub,2013-08-15 12:21:00,
2013-08-15 08:26:00,77.2,76.8,29.89,South,180,3.0,6.0,99,0.01,,,0.44,meteohub,2013-08-15 12:26:00,
2013-08-15 08:32:00,77.2,76.8,29.89,SE,135,2.0,5.0,99,0.01,,,0.44,meteohub,2013-08-15 12:32:00,
2013-08-15 08:37:00,77.2,76.8,29.88,SW,225,0.0,5.0,99,0.01,,,0.44,meteohub,2013-08-15 12:37:00,
2013-08-15 08:42:00,77.2,76.8,29.88,SE,135,1.0,5.0,99,0.01,,,0.44,meteohub,2013-08-15 12:42:00,
2013-08-15 08:47:00,77.2,76.8,29.88,SE,135,1.0,4.0,99,0.01,,,0.44,meteohub,2013-08-15 12:47:00,
2013-08-15 08:52:00,77.4,77.0,29.88,East,90,2.0,3.0,99,0.02,,,0.45,meteohub,2013-08-15 12:52:00,
2013-08-15 08:57:00,77.4,77.0,29.88,East,90,2.0,3.0,99,0.02,,,0.45,meteohub,2013-08-15 12:57:00,
2013-08-15 09:02:00,77.4,77.0,29.88,SW,225,1.0,4.0,99,0.02,,,0.45,meteohub,2013-08-15 13:02:00,
2013-08-15 09:07:00,77.5,77.2,29.88,SW,225,2.0,4.0,99,0.02,,,0.45,meteohub,2013-08-15 13:07:00,
2013-08-15 09:12:00,77.5,77.2,29.88,SW,225,1.0,4.0,99,0.02,,,0.45,meteohub,2013-08-15 13:12:00,
2013-08-15 09:17:00,77.7,77.4,29.88,SW,225,0.0,2.0,99,0.01,,,0.45,meteohub,2013-08-15 13:17:00,
2013-08-15 09:22:00,77.9,77.5,29.88,South,180,1.0,2.0,99,0.01,,,0.45,meteohub,2013-08-15 13:22:00,
2013-08-15 09:27:00,77.9,77.5,29.88,South,180,1.0,2.0,99,0.01,,,0.45,meteohub,2013-08-15 13:27:00,
2013-08-15 09:28:00,78.1,77.7,29.89,South,180,0.0,2.0,99,0.01,,,0.45,meteohub,2013-08-15 13:28:00,
2013-08-15 09:33:00,78.3,77.9,29.88,SW,225,1.0,2.0,99,0.01,,,0.45,meteohub,2013-08-15 13:33:00,
2013-08-15 09:38:00,78.3,77.9,29.88,South,180,1.0,2.0,99,0.01,,,0.45,meteohub,2013-08-15 13:38:00,
2013-08-15 09:43:00,78.4,78.1,29.89,SW,225,1.0,2.0,99,0.01,,,0.45,meteohub,2013-08-15 13:43:00,
2013-08-15 09:48:00,78.6,78.3,29.89,East,90,3.0,3.0,99,0.01,,,0.45,meteohub,2013-08-15 13:48:00,
2013-08-15 09:54:00,78.6,78.3,29.89,South,180,1.0,4.0,99,0.00,,,0.45,meteohub,2013-08-15 13:54:00,
2013-08-15 09:59:00,78.8,78.4,29.89,East,90,2.0,4.0,99,0.00,,,0.45,meteohub,2013-08-15 13:59:00,
2013-08-15 10:04:00,79.0,78.6,29.89,South,180,1.0,4.0,99,0.00,,,0.45,meteohub,2013-08-15 14:04:00,
2013-08-15 10:09:00,79.0,78.6,29.89,South,180,1.0,3.0,99,0.00,,,0.45,meteohub,2013-08-15 14:09:00,
2013-08-15 10:14:00,79.2,78.8,29.90,SE,135,2.0,4.0,99,0.00,,,0.45,meteohub,2013-08-15 14:14:00,
2013-08-15 10:19:00,79.2,78.8,29.89,East,90,6.0,6.0,99,0.00,,,0.45,meteohub,2013-08-15 14:19:00,
2013-08-15 10:24:00,79.2,78.8,29.89,ESE,113,3.0,4.0,99,0.00,,,0.45,meteohub,2013-08-15 14:24:00,
2013-08-15 10:30:00,79.3,79.0,29.89,South,180,2.0,6.0,99,0.00,,,0.45,meteohub,2013-08-15 14:30:00,
2013-08-15 10:35:00,79.3,79.0,29.89,East,90,2.0,6.0,99,0.00,,,0.45,meteohub,2013-08-15 14:35:00,
2013-08-15 10:40:00,79.3,79.0,29.89,ESE,113,2.0,4.0,99,0.00,,,0.45,meteohub,2013-08-15 14:40:00,
2013-08-15 10:45:00,79.5,79.2,29.89,East,90,4.0,4.0,99,0.00,,,0.45,meteohub,2013-08-15 14:45:00,
2013-08-15 10:50:00,79.5,79.2,29.90,East,90,3.0,4.0,99,0.00,,,0.45,meteohub,2013-08-15 14:50:00,
2013-08-15 10:56:00,79.7,79.3,29.90,East,90,2.0,4.0,99,0.00,,,0.45,meteohub,2013-08-15 14:56:00,
2013-08-15 11:01:00,79.9,79.5,29.90,SE,135,2.0,4.0,99,0.00,,,0.45,meteohub,2013-08-15 15:01:00,
2013-08-15 11:07:00,79.9,79.5,29.90,East,90,4.0,4.0,99,0.00,,,0.45,meteohub,2013-08-15 15:07:00,
2013-08-15 11:12:00,80.1,79.7,29.90,ESE,113,4.0,4.0,99,0.00,,,0.45,meteohub,2013-08-15 15:12:00,
2013-08-15 11:17:00,80.2,79.9,29.90,East,90,1.0,5.0,99,0.00,,,0.45,meteohub,2013-08-15 15:17:00,
2013-08-15 11:22:00,80.6,80.2,29.90,SE,135,1.0,5.0,99,0.01,,,0.46,meteohub,2013-08-15 15:22:00,
2013-08-15 11:27:00,80.8,80.4,29.91,NE,45,4.0,5.0,99,0.01,,,0.46,meteohub,2013-08-15 15:27:00,
2013-08-15 11:32:00,81.0,80.6,29.90,East,90,3.0,5.0,99,0.01,,,0.46,meteohub,2013-08-15 15:32:00,
2013-08-15 11:37:00,81.3,81.0,29.91,East,90,3.0,5.0,99,0.01,,,0.46,meteohub,2013-08-15 15:37:00,
2013-08-15 11:42:00,81.5,81.1,29.91,East,90,2.0,5.0,99,0.01,,,0.46,meteohub,2013-08-15 15:42:00,
2013-08-15 11:48:00,81.9,81.5,29.91,East,90,2.0,5.0,99,0.01,,,0.46,meteohub,2013-08-15 15:48:00,
2013-08-15 11:53:00,81.9,81.5,29.90,East,90,3.0,5.0,99,0.01,,,0.46,meteohub,2013-08-15 15:53:00,
2013-08-15 11:58:00,82.0,81.1,29.91,East,90,6.0,6.0,97,0.01,,,0.46,meteohub,2013-08-15 15:58:00,
2013-08-15 12:03:00,81.9,81.0,29.91,NE,45,4.0,6.0,97,0.01,,,0.46,meteohub,2013-08-15 16:03:00,
2013-08-15 12:08:00,81.9,80.6,29.91,East,90,2.0,6.0,96,0.01,,,0.46,meteohub,2013-08-15 16:08:00,
2013-08-15 12:13:00,82.2,81.0,29.91,NE,45,3.0,6.0,96,0.01,,,0.46,meteohub,2013-08-15 16:13:00,
2013-08-15 12:19:00,82.4,81.1,29.91,East,90,3.0,4.0,96,0.01,,,0.46,meteohub,2013-08-15 16:19:00,
2013-08-15 12:25:00,82.6,81.7,29.91,South,180,3.0,4.0,97,0.00,,,0.46,meteohub,2013-08-15 16:25:00,
2013-08-15 12:30:00,82.8,81.5,29.92,South,180,1.0,4.0,96,0.00,,,0.46,meteohub,2013-08-15 16:30:00,
2013-08-15 12:35:00,82.8,81.1,29.92,East,90,2.0,4.0,95,0.00,,,0.46,meteohub,2013-08-15 16:35:00,
2013-08-15 12:40:00,82.6,81.0,29.91,East,90,3.0,4.0,95,0.00,,,0.46,meteohub,2013-08-15 16:40:00,
2013-08-15 12:45:00,82.4,81.1,29.91,East,90,3.0,4.0,96,0.00,,,0.46,meteohub,2013-08-15 16:45:00,
2013-08-15 12:50:00,82.6,81.3,29.92,South,180,2.0,4.0,96,0.01,,,0.47,meteohub,2013-08-15 16:50:00,
2013-08-15 12:56:00,82.9,81.7,29.92,East,90,2.0,4.0,96,0.01,,,0.47,meteohub,2013-08-15 16:56:00,
2013-08-15 13:01:00,83.5,81.9,29.91,South,180,2.0,4.0,95,0.01,,,0.47,meteohub,2013-08-15 17:01:00,
2013-08-15 13:06:00,84.0,81.5,29.91,South,180,2.0,3.0,92,0.01,,,0.47,meteohub,2013-08-15 17:06:00,
2013-08-15 13:11:00,84.4,81.1,29.91,East,90,3.0,3.0,90,0.01,,,0.47,meteohub,2013-08-15 17:11:00,
2013-08-15 13:16:00,85.5,82.2,29.91,SW,225,1.0,5.0,90,0.01,,,0.47,meteohub,2013-08-15 17:16:00,
2013-08-15 13:21:00,86.0,81.7,29.91,NE,45,3.0,5.0,87,0.01,,,0.47,meteohub,2013-08-15 17:21:00,
2013-08-15 13:27:00,86.4,81.7,29.91,East,90,2.0,5.0,86,0.01,,,0.47,meteohub,2013-08-15 17:27:00,
2013-08-15 13:32:00,86.4,80.6,29.90,SE,135,3.0,4.0,83,0.01,,,0.47,meteohub,2013-08-15 17:32:00,
2013-08-15 13:37:00,86.9,81.9,29.90,South,180,1.0,4.0,85,0.01,,,0.47,meteohub,2013-08-15 17:37:00,
2013-08-15 13:42:00,88.2,82.0,29.89,SE,135,4.0,4.0,82,0.01,,,0.47,meteohub,2013-08-15 17:42:00,
2013-08-15 13:47:00,89.1,82.0,29.90,SE,135,2.0,4.0,80,0.01,,,0.47,meteohub,2013-08-15 17:47:00,
2013-08-15 13:52:00,88.9,80.2,29.89,East,90,3.0,5.0,76,0.00,,,0.47,meteohub,2013-08-15 17:52:00,
2013-08-15 13:57:00,90.0,81.0,29.88,SE,135,2.0,5.0,75,0.00,,,0.47,meteohub,2013-08-15 17:57:00,
2013-08-15 14:02:00,90.3,80.4,29.88,East,90,4.0,5.0,73,0.00,,,0.47,meteohub,2013-08-15 18:02:00,
2013-08-15 14:07:00,89.4,80.8,29.88,North,0,4.0,4.0,76,0.00,,,0.47,meteohub,2013-08-15 18:07:00,
2013-08-15 14:12:00,88.2,80.1,29.88,East,90,2.0,4.0,77,0.00,,,0.47,meteohub,2013-08-15 18:12:00,
2013-08-15 14:18:00,87.4,80.1,29.88,South,180,4.0,8.0,79,0.00,,,0.47,meteohub,2013-08-15 18:18:00,
2013-08-15 14:23:00,87.3,79.5,29.88,East,90,3.0,8.0,78,0.00,,,0.47,meteohub,2013-08-15 18:23:00,
2013-08-15 14:28:00,88.0,79.9,29.87,East,90,4.0,8.0,77,0.00,,,0.47,meteohub,2013-08-15 18:28:00,
2013-08-15 14:34:00,87.8,79.3,29.87,SE,135,4.0,4.0,76,0.00,,,0.47,meteohub,2013-08-15 18:34:00,
2013-08-15 14:39:00,88.2,80.4,29.87,East,90,4.0,6.0,78,0.00,,,0.47,meteohub,2013-08-15 18:39:00,
2013-08-15 14:44:00,88.2,79.7,29.87,East,90,8.0,8.0,76,0.00,,,0.47,meteohub,2013-08-15 18:44:00,
2013-08-15 14:49:00,87.1,79.3,29.87,ESE,113,4.0,8.0,78,0.00,,,0.47,meteohub,2013-08-15 18:49:00,
2013-08-15 14:54:00,87.3,79.2,29.87,East,90,5.0,8.0,77,0.00,,,0.47,meteohub,2013-08-15 18:54:00,
2013-08-15 15:00:00,87.6,79.5,29.87,East,90,4.0,8.0,77,0.00,,,0.47,meteohub,2013-08-15 19:00:00,
2013-08-15 15:05:00,87.8,78.8,29.87,East,90,7.0,7.0,75,0.00,,,0.47,meteohub,2013-08-15 19:05:00,
2013-08-15 15:11:00,87.1,79.3,29.86,NE,45,8.0,8.0,78,0.00,,,0.47,meteohub,2013-08-15 19:11:00,
2013-08-15 15:16:00,86.9,79.2,29.87,ENE,68,3.0,8.0,78,0.00,,,0.47,meteohub,2013-08-15 19:16:00,
2013-08-15 15:21:00,87.3,78.8,29.86,NE,45,5.0,8.0,76,0.00,,,0.47,meteohub,2013-08-15 19:21:00,
2013-08-15 15:26:00,86.7,78.3,29.86,East,90,9.0,9.0,76,0.00,,,0.47,meteohub,2013-08-15 19:26:00,
2013-08-15 15:31:00,86.4,79.0,29.86,East,90,4.0,9.0,79,0.00,,,0.47,meteohub,2013-08-15 19:31:00,
2013-08-15 15:37:00,86.0,79.5,29.86,East,90,6.0,9.0,81,0.00,,,0.47,meteohub,2013-08-15 19:37:00,
2013-08-15 15:42:00,86.0,79.9,29.85,ESE,113,7.0,9.0,82,0.00,,,0.47,meteohub,2013-08-15 19:42:00,
2013-08-15 15:47:00,85.8,79.7,29.86,East,90,4.0,9.0,82,0.00,,,0.47,meteohub,2013-08-15 19:47:00,
2013-08-15 15:52:00,85.8,80.1,29.86,SE,135,6.0,7.0,83,0.00,,,0.47,meteohub,2013-08-15 19:52:00,
2013-08-15 15:57:00,85.8,79.7,29.86,SE,135,7.0,7.0,82,0.00,,,0.47,meteohub,2013-08-15 19:57:00,
2013-08-15 16:02:00,86.0,79.5,29.86,SW,225,3.0,7.0,81,0.00,,,0.47,meteohub,2013-08-15 20:02:00,
2013-08-15 16:07:00,86.2,79.7,29.86,ENE,68,3.0,7.0,81,0.00,,,0.47,meteohub,2013-08-15 20:07:00,
2013-08-15 16:12:00,86.0,79.9,29.86,SW,225,4.0,7.0,82,0.00,,,0.47,meteohub,2013-08-15 20:12:00,
2013-08-15 16:17:00,85.5,80.1,29.86,South,180,2.0,9.0,84,0.00,,,0.47,meteohub,2013-08-15 20:17:00,
2013-08-15 16:22:00,83.7,79.3,29.86,SW,225,4.0,11.0,87,0.00,,,0.47,meteohub,2013-08-15 20:22:00,
2013-08-15 16:27:00,82.6,78.6,29.85,SW,225,2.0,11.0,88,0.00,,,0.47,meteohub,2013-08-15 20:27:00,
2013-08-15 16:33:00,82.2,77.9,29.86,SW,225,4.0,11.0,87,0.00,,,0.47,meteohub,2013-08-15 20:33:00,
2013-08-15 16:38:00,81.9,77.9,29.86,South,180,1.0,7.0,88,0.00,,,0.47,meteohub,2013-08-15 20:38:00,
2013-08-15 16:44:00,81.1,77.9,29.86,South,180,2.0,4.0,90,0.01,,,0.48,meteohub,2013-08-15 20:44:00,
2013-08-15 16:49:00,80.4,77.9,29.86,South,180,1.0,4.0,92,0.01,,,0.48,meteohub,2013-08-15 20:49:00,
2013-08-15 16:54:00,80.2,78.1,29.86,East,90,1.0,3.0,93,0.02,,,0.50,meteohub,2013-08-15 20:54:00,
2013-08-15 16:59:00,80.1,78.3,29.86,SE,135,1.0,3.0,94,0.02,,,0.50,meteohub,2013-08-15 20:59:00,
2013-08-15 17:07:00,80.4,79.9,29.86,East,90,1.0,1.0,98,0.02,,,0.50,meteohub,2013-08-15 21:07:00,
2013-08-15 17:12:00,80.8,80.4,29.86,SE,135,2.0,2.0,99,0.02,,,0.50,meteohub,2013-08-15 21:12:00,
2013-08-15 17:17:00,81.1,80.8,29.86,SE,135,4.0,4.0,99,0.02,,,0.50,meteohub,2013-08-15 21:17:00,
2013-08-15 17:22:00,81.5,81.1,29.86,South,180,1.0,4.0,99,0.02,,,0.50,meteohub,2013-08-15 21:22:00,
2013-08-15 17:27:00,81.7,81.3,29.87,SW,225,1.0,4.0,99,0.02,,,0.50,meteohub,2013-08-15 21:27:00,
2013-08-15 17:32:00,81.9,81.5,29.86,SW,225,2.0,4.0,99,0.02,,,0.50,meteohub,2013-08-15 21:32:00,
2013-08-15 17:37:00,82.0,81.7,29.86,SSW,203,5.0,5.0,99,0.02,,,0.50,meteohub,2013-08-15 21:37:00,
2013-08-15 17:42:00,81.9,81.5,29.86,South,180,1.0,5.0,99,0.01,,,0.50,meteohub,2013-08-15 21:42:00,
2013-08-15 17:47:00,82.0,81.7,29.86,South,180,2.0,5.0,99,0.01,,,0.50,meteohub,2013-08-15 21:47:00,
2013-08-15 17:52:00,82.0,81.7,29.85,South,180,4.0,5.0,99,0.00,,,0.50,meteohub,2013-08-15 21:52:00,
2013-08-15 17:57:00,82.2,81.9,29.86,South,180,1.0,4.0,99,0.00,,,0.50,meteohub,2013-08-15 21:57:00,
2013-08-15 18:03:00,82.2,81.7,29.86,SW,225,2.0,4.0,98,0.00,,,0.50,meteohub,2013-08-15 22:03:00,
2013-08-15 18:08:00,82.4,81.5,29.85,South,180,2.0,4.0,97,0.00,,,0.50,meteohub,2013-08-15 22:08:00,
2013-08-15 18:13:00,82.8,81.9,29.85,South,180,2.0,3.0,97,0.00,,,0.50,meteohub,2013-08-15 22:13:00,
2013-08-15 18:18:00,82.8,81.5,29.85,South,180,1.0,3.0,96,0.00,,,0.50,meteohub,2013-08-15 22:18:00,
2013-08-15 18:23:00,82.8,81.5,29.85,South,180,1.0,3.0,96,0.00,,,0.50,meteohub,2013-08-15 22:23:00,
2013-08-15 18:28:00,82.8,81.9,29.85,SE,135,1.0,3.0,97,0.00,,,0.50,meteohub,2013-08-15 22:28:00,
2013-08-15 18:33:00,83.1,81.9,29.86,SE,135,3.0,3.0,96,0.00,,,0.50,meteohub,2013-08-15 22:33:00,
2013-08-15 18:39:00,82.9,81.3,29.86,SE,135,2.0,3.0,95,0.00,,,0.50,meteohub,2013-08-15 22:39:00,
2013-08-15 18:44:00,83.1,81.9,29.86,South,180,2.0,3.0,96,0.00,,,0.50,meteohub,2013-08-15 22:44:00,
2013-08-15 18:49:00,83.5,81.9,29.86,South,180,1.0,3.0,95,0.00,,,0.50,meteohub,2013-08-15 22:49:00,
2013-08-15 18:54:00,83.5,81.9,29.86,South,180,2.0,3.0,95,0.00,,,0.50,meteohub,2013-08-15 22:54:00,
2013-08-15 18:59:00,83.1,81.5,29.87,SE,135,4.0,4.0,95,0.00,,,0.50,meteohub,2013-08-15 22:59:00,
2013-08-15 19:04:00,83.1,81.5,29.87,South,180,2.0,4.0,95,0.00,,,0.50,meteohub,2013-08-15 23:04:00,
2013-08-15 19:09:00,82.9,81.7,29.88,South,180,2.0,6.0,96,0.00,,,0.50,meteohub,2013-08-15 23:09:00,
2013-08-15 19:14:00,82.8,81.5,29.87,South,180,2.0,6.0,96,0.00,,,0.50,meteohub,2013-08-15 23:14:00,
2013-08-15 19:20:00,82.6,81.7,29.87,South,180,1.0,6.0,97,0.00,,,0.50,meteohub,2013-08-15 23:20:00,
2013-08-15 19:25:00,82.4,81.5,29.88,East,90,3.0,3.0,97,0.00,,,0.50,meteohub,2013-08-15 23:25:00,
2013-08-15 19:30:00,82.2,81.3,29.88,South,180,3.0,4.0,97,0.00,,,0.50,meteohub,2013-08-15 23:30:00,
2013-08-15 19:35:00,82.0,81.5,29.87,East,90,3.0,4.0,98,0.00,,,0.50,meteohub,2013-08-15 23:35:00,
2013-08-15 19:40:00,82.0,81.5,29.88,South,180,1.0,3.0,98,0.00,,,0.50,meteohub,2013-08-15 23:40:00,
2013-08-15 19:45:00,81.9,81.5,29.88,South,180,1.0,3.0,99,0.00,,,0.50,meteohub,2013-08-15 23:45:00,
2013-08-15 19:50:00,81.9,81.5,29.88,SW,225,2.0,3.0,99,0.00,,,0.50,meteohub,2013-08-15 23:50:00,
2013-08-15 19:56:00,81.9,81.5,29.88,South,180,1.0,2.0,99,0.00,,,0.50,meteohub,2013-08-15 23:56:00,
2013-08-15 20:01:00,81.9,81.5,29.88,South,180,1.0,3.0,99,0.00,,,0.50,meteohub,2013-08-16 00:01:00,
2013-08-15 20:06:00,81.7,81.3,29.88,South,180,2.0,3.0,99,0.00,,,0.00,meteohub,2013-08-16 00:06:00,
2013-08-15 20:12:00,81.7,81.3,29.88,South,180,2.0,3.0,99,0.00,,,0.00,meteohub,2013-08-16 00:12:00,
2013-08-15 20:17:00,81.5,81.1,29.89,South,180,1.0,3.0,99,0.00,,,0.00,meteohub,2013-08-16 00:17:00,
2013-08-15 20:22:00,81.5,81.1,29.88,SW,225,1.0,3.0,99,0.00,,,0.00,meteohub,2013-08-16 00:22:00,
2013-08-15 20:27:00,81.5,81.1,29.89,South,180,2.0,3.0,99,0.00,,,0.00,meteohub,2013-08-16 00:27:00,
2013-08-15 20:32:00,81.5,81.1,29.89,South,180,2.0,2.0,99,0.00,,,0.00,meteohub,2013-08-16 00:32:00,
2013-08-15 20:37:00,81.5,81.1,29.90,SE,135,1.0,2.0,99,0.00,,,0.00,meteohub,2013-08-16 00:37:00,
2013-08-15 20:42:00,81.3,81.0,29.90,South,180,1.0,2.0,99,0.00,,,0.00,meteohub,2013-08-16 00:42:00,
2013-08-15 20:47:00,81.5,81.1,29.90,South,180,1.0,2.0,99,0.00,,,0.00,meteohub,2013-08-16 00:47:00,
2013-08-15 20:52:00,81.3,81.0,29.90,South,180,2.0,2.0,99,0.00,,,0.00,meteohub,2013-08-16 00:52:00,
2013-08-15 20:57:00,81.5,81.1,29.91,South,180,1.0,2.0,99,0.00,,,0.00,meteohub,2013-08-16 00:57:00,
2013-08-15 21:03:00,81.5,81.1,29.91,SE,135,1.0,2.0,99,0.00,,,0.00,meteohub,2013-08-16 01:03:00,
2013-08-15 21:08:00,81.7,81.3,29.91,SW,225,2.0,4.0,99,0.00,,,0.00,meteohub,2013-08-16 01:08:00,
2013-08-15 21:13:00,81.7,81.3,29.91,SE,135,2.0,4.0,99,0.00,,,0.00,meteohub,2013-08-16 01:13:00,
2013-08-15 21:18:00,81.5,81.1,29.92,SE,135,1.0,4.0,99,0.00,,,0.00,meteohub,2013-08-16 01:18:00,
2013-08-15 21:24:00,81.5,81.1,29.92,SW,225,1.0,3.0,99,0.00,,,0.00,meteohub,2013-08-16 01:24:00,
2013-08-15 21:29:00,81.5,81.1,29.93,South,180,1.0,2.0,99,0.00,,,0.00,meteohub,2013-08-16 01:29:00,
2013-08-15 21:32:00,81.5,81.1,29.93,South,180,2.0,2.0,99,0.00,,,0.00,meteohub,2013-08-16 01:32:00,
2013-08-15 21:37:00,81.7,81.3,29.93,South,180,1.0,3.0,99,0.00,,,0.00,meteohub,2013-08-16 01:37:00,
2013-08-15 21:42:00,81.5,81.1,29.94,SW,225,1.0,3.0,99,0.00,,,0.00,meteohub,2013-08-16 01:42:00,
2013-08-15 21:47:00,81.5,81.1,29.94,SW,225,2.0,3.0,99,0.00,,,0.00,meteohub,2013-08-16 01:47:00,
2013-08-15 21:52:00,81.5,81.1,29.94,South,180,0.0,2.0,99,0.00,,,0.00,meteohub,2013-08-16 01:52:00,
2013-08-15 21:57:00,81.5,81.1,29.94,South,180,0.0,2.0,99,0.00,,,0.00,meteohub,2013-08-16 01:57:00,
2013-08-15 22:02:00,81.3,81.0,29.94,South,180,1.0,2.0,99,0.00,,,0.00,meteohub,2013-08-16 02:02:00,
2013-08-15 22:07:00,81.3,81.0,29.94,South,180,1.0,2.0,99,0.00,,,0.00,meteohub,2013-08-16 02:07:00,
2013-08-15 22:13:00,81.3,81.0,29.94,South,180,0.0,2.0,99,0.00,,,0.00,meteohub,2013-08-16 02:13:00,
2013-08-15 22:18:00,81.3,80.8,29.94,South,180,2.0,2.0,98,0.00,,,0.00,meteohub,2013-08-16 02:18:00,
2013-08-15 22:23:00,81.3,80.8,29.94,SW,225,2.0,2.0,98,0.00,,,0.00,meteohub,2013-08-16 02:23:00,
2013-08-15 22:28:00,81.3,80.8,29.95,South,180,1.0,2.0,98,0.00,,,0.00,meteohub,2013-08-16 02:28:00,
2013-08-15 22:33:00,81.3,80.8,29.94,South,180,1.0,2.0,98,0.00,,,0.00,meteohub,2013-08-16 02:33:00,
2013-08-15 22:39:00,81.3,80.8,29.94,South,180,0.0,2.0,98,0.00,,,0.00,meteohub,2013-08-16 02:39:00,
2013-08-15 22:44:00,81.1,80.6,29.94,South,180,1.0,2.0,98,0.00,,,0.00,meteohub,2013-08-16 02:44:00,
2013-08-15 22:49:00,81.1,80.8,29.94,South,180,0.0,1.0,99,0.00,,,0.00,meteohub,2013-08-16 02:49:00,
2013-08-15 22:54:00,81.0,80.6,29.95,South,180,1.0,1.0,99,0.00,,,0.00,meteohub,2013-08-16 02:54:00,
2013-08-15 22:59:00,80.8,80.4,29.95,SW,225,1.0,1.0,99,0.00,,,0.00,meteohub,2013-08-16 02:59:00,
2013-08-15 23:04:00,80.8,80.4,29.94,SW,225,1.0,1.0,99,0.00,,,0.00,meteohub,2013-08-16 03:04:00,
2013-08-15 23:09:00,80.6,80.2,29.94,South,180,0.0,1.0,99,0.00,,,0.00,meteohub,2013-08-16 03:09:00,
2013-08-15 23:15:00,80.6,80.2,29.94,South,180,0.0,1.0,99,0.00,,,0.00,meteohub,2013-08-16 03:15:00,
2013-08-15 23:20:00,80.6,80.2,29.94,South,180,0.0,1.0,99,0.00,,,0.00,meteohub,2013-08-16 03:20:00,
2013-08-15 23:25:00,80.6,80.2,29.94,South,180,0.0,1.0,99,0.00,,,0.00,meteohub,2013-08-16 03:25:00,
2013-08-15 23:30:00,80.4,80.1,29.94,South,180,0.0,1.0,99,0.00,,,0.00,meteohub,2013-08-16 03:30:00,
2013-08-15 23:35:00,80.4,80.1,29.94,South,180,0.0,1.0,99,0.00,,,0.00,meteohub,2013-08-16 03:35:00,
2013-08-15 23:40:00,80.2,79.9,29.94,South,180,1.0,0.0,99,0.00,,,0.00,meteohub,2013-08-16 03:40:00,
2013-08-15 23:46:00,80.2,79.9,29.94,South,180,0.0,1.0,99,0.00,,,0.00,meteohub,2013-08-16 03:46:00,
2013-08-15 23:51:00,80.2,79.9,29.94,South,180,0.0,1.0,99,0.00,,,0.00,meteohub,2013-08-16 03:51:00,
2013-08-15 23:56:00,80.1,79.7,29.94,South,180,0.0,1.0,99,0.00,,,0.00,meteohub,2013-08-16 03:56:00,